createdAt,value
2018-04-28T00:02:29.107Z,8.33
2018-04-28T00:04:56.478Z,8.00
2018-04-28T00:07:23.162Z,11.83
2018-04-28T00:09:49.758Z,10.20
2018-04-28T00:12:16.795Z,11.87
2018-04-28T00:14:43.682Z,11.53
2018-04-28T00:17:19.751Z,11.07
2018-04-28T00:19:49.256Z,10.17
2018-04-28T00:22:19.073Z,11.47
2018-04-28T00:24:46.058Z,10.80
2018-04-28T00:27:12.278Z,9.10
2018-04-28T00:29:41.353Z,9.77
2018-04-28T00:32:09.061Z,9.10
2018-04-28T00:34:47.705Z,8.97
2018-04-28T00:37:14.141Z,10.60
2018-04-28T00:39:42.660Z,11.47
2018-04-28T00:42:08.903Z,8.97
2018-04-28T00:44:35.131Z,11.93
2018-04-28T00:47:17.209Z,13.57
2018-04-28T00:50:00.030Z,11.73
2018-04-28T00:52:26.990Z,8.67
2018-04-28T00:54:54.146Z,6.43
2018-04-28T01:00:32.892Z,6.13
2018-04-28T01:02:59.071Z,6.80
2018-04-28T01:05:40.372Z,7.03
2018-04-28T01:08:06.686Z,9.17
2018-04-28T01:10:33.828Z,8.13
2018-04-28T01:13:09.302Z,8.53
2018-04-28T01:15:36.515Z,9.83
2018-04-28T01:18:04.615Z,8.17
2018-04-28T01:20:32.584Z,8.95
2018-04-28T01:23:02.708Z,8.55
2018-04-28T01:25:50.077Z,9.23
2018-04-28T01:31:29.250Z,8.52
2018-04-28T01:34:06.311Z,7.32
2018-04-28T01:36:34.251Z,7.50
2018-04-28T01:41:57.323Z,8.45
2018-04-28T01:44:33.444Z,7.10
2018-04-28T01:47:00.708Z,7.95
2018-04-28T01:49:31.393Z,7.65
2018-04-28T01:51:59.016Z,7.95
2018-04-28T01:54:44.452Z,10.40
2018-04-28T01:57:18.085Z,8.70
2018-04-28T01:59:53.637Z,7.80
2018-04-28T02:02:23.879Z,7.53
2018-04-28T02:04:53.948Z,8.13
2018-04-28T02:07:21.535Z,7.55
2018-04-28T02:09:51.980Z,8.00
2018-04-28T02:12:21.057Z,7.40
2018-04-28T02:14:47.292Z,7.22
2018-04-28T02:17:13.517Z,7.40
2018-04-28T02:19:53.001Z,7.12
2018-04-28T02:22:29.110Z,6.80
2018-04-28T02:25:03.150Z,6.20
2018-04-28T02:27:40.585Z,6.20
2018-04-28T02:30:07.567Z,6.37
2018-04-28T02:32:34.761Z,5.75
2018-04-28T02:35:08.927Z,5.87
2018-04-28T02:37:48.105Z,6.68
2018-04-28T02:40:26.776Z,5.65
2018-04-28T02:42:53.014Z,5.57
2018-04-28T02:45:37.140Z,5.90
2018-04-28T02:48:07.309Z,6.00
2018-04-28T02:50:34.973Z,5.57
2018-04-28T02:53:15.562Z,6.37
2018-04-28T02:58:52.457Z,5.57
2018-04-28T03:01:23.040Z,7.33
2018-04-28T03:03:53.093Z,6.10
2018-04-28T03:06:24.612Z,5.95
2018-04-28T03:08:52.002Z,6.62
2018-04-28T03:11:19.393Z,6.35
2018-04-28T03:13:50.433Z,8.93
2018-04-28T03:16:21.302Z,6.35
2018-04-28T03:18:47.524Z,6.72
2018-04-28T03:21:17.917Z,6.82
2018-04-28T03:23:46.955Z,5.97
2018-04-28T03:26:17.002Z,6.45
2018-04-28T03:28:47.488Z,5.22
2018-04-28T03:31:14.682Z,5.90
2018-04-28T03:33:43.803Z,5.97
2018-04-28T03:36:16.657Z,6.22
2018-04-28T03:38:43.677Z,5.57
2018-04-28T03:41:10.725Z,4.85
2018-04-28T03:43:37.789Z,5.30
2018-04-28T03:46:21.842Z,5.97
2018-04-28T03:49:02.989Z,6.22
2018-04-28T03:51:31.228Z,5.65
2018-04-28T03:54:03.769Z,5.87
2018-04-28T03:56:30.065Z,5.50
2018-04-28T03:59:08.990Z,6.05
2018-04-28T04:01:47.576Z,5.20
2018-04-28T04:07:27.783Z,5.78
2018-04-28T04:09:54.001Z,6.05
2018-04-28T04:12:26.284Z,6.00
2018-04-28T04:15:09.795Z,5.22
2018-04-28T04:20:31.602Z,5.80
2018-04-28T04:23:12.649Z,5.20
2018-04-28T04:26:13.083Z,6.12
2018-04-28T04:29:00.925Z,5.10
2018-04-28T04:31:36.517Z,5.90
2018-04-28T04:34:04.259Z,6.10
2018-04-28T04:36:39.703Z,5.90
2018-04-28T04:39:32.712Z,6.12
2018-04-28T04:42:16.639Z,6.28
2018-04-28T04:44:45.883Z,6.72
2018-04-28T04:50:34.655Z,6.47
2018-04-28T04:56:41.343Z,5.32
2018-04-28T04:59:20.396Z,6.00
2018-04-28T05:01:59.225Z,5.57
2018-04-28T05:04:37.384Z,6.83
2018-04-28T05:07:08.552Z,6.83
2018-04-28T05:09:50.016Z,8.33
2018-04-28T05:12:25.704Z,6.03
2018-04-28T05:15:04.779Z,5.53
2018-04-28T05:27:21.904Z,5.00
2018-04-28T05:30:01.059Z,6.00
2018-04-28T05:32:34.246Z,5.90
2018-04-28T05:35:23.209Z,5.93
2018-04-28T05:38:11.387Z,7.10
2018-04-28T05:43:56.444Z,6.20
2018-04-28T05:49:37.373Z,6.30
2018-04-28T05:52:15.448Z,6.20
2018-04-28T05:54:55.639Z,6.00
2018-04-28T05:57:33.711Z,6.80
2018-04-28T06:00:28.001Z,6.10
2018-04-28T06:03:07.528Z,6.13
2018-04-28T06:05:46.674Z,6.43
2018-04-28T06:08:37.896Z,5.83
2018-04-28T06:11:40.129Z,6.10
2018-04-28T06:14:25.097Z,6.10
2018-04-28T06:17:09.232Z,8.03
2018-04-28T06:20:00.553Z,6.13
2018-04-28T06:22:27.496Z,6.73
2018-04-28T06:24:54.340Z,6.40
2018-04-28T06:27:20.638Z,6.53
2018-04-28T06:29:46.849Z,5.83
2018-04-28T06:32:13.058Z,6.57
2018-04-28T06:34:40.984Z,8.40
2018-04-28T06:37:07.728Z,6.20
2018-04-28T06:39:34.494Z,5.67
2018-04-28T06:42:01.465Z,5.40
2018-04-28T06:44:27.654Z,11.40
2018-04-28T06:47:08.892Z,5.70
2018-04-28T06:49:35.204Z,5.90
2018-04-28T06:52:01.570Z,5.40
2018-04-28T06:54:29.076Z,5.50
2018-04-28T06:56:56.214Z,6.40
2018-04-28T06:59:23.188Z,7.40
2018-04-28T07:01:49.448Z,9.23
2018-04-28T07:04:16.195Z,6.50
2018-04-28T07:06:43.187Z,7.90
2018-04-28T07:09:10.405Z,6.80
2018-04-28T07:11:36.680Z,7.03
2018-04-28T07:14:02.946Z,7.67
2018-04-28T07:16:30.162Z,6.70
2018-04-28T07:18:56.376Z,8.70
2018-04-28T07:21:22.638Z,9.73
2018-04-28T07:23:50.108Z,7.60
2018-04-28T07:26:16.324Z,6.90
2018-04-28T07:28:43.057Z,8.60
2018-04-28T07:31:10.884Z,7.60
2018-04-28T07:33:37.826Z,7.20
2018-04-28T07:36:04.821Z,7.90
2018-04-28T07:38:31.310Z,8.10
2018-04-28T07:40:58.396Z,7.93
2018-04-28T07:43:25.282Z,7.17
2018-04-28T07:45:52.480Z,7.50
2018-04-28T07:48:18.936Z,7.53
2018-04-28T07:50:46.293Z,7.43
2018-04-28T07:53:13.449Z,8.07
2018-04-28T07:55:40.165Z,6.80
2018-04-28T07:58:06.476Z,7.37
2018-04-28T08:00:33.607Z,7.97
2018-04-28T08:02:59.985Z,8.63
2018-04-28T08:05:26.660Z,7.60
2018-04-28T08:07:53.936Z,8.33
2018-04-28T08:10:21.160Z,10.20
2018-04-28T08:12:48.153Z,6.63
2018-04-28T08:15:14.822Z,6.23
2018-04-28T08:17:42.401Z,7.13
2018-04-28T08:20:09.660Z,7.33
2018-04-28T08:22:36.841Z,7.90
2018-04-28T08:25:03.294Z,8.23
2018-04-28T08:27:29.918Z,7.47
2018-04-28T08:29:56.979Z,8.30
2018-04-28T08:32:24.070Z,6.97
2018-04-28T08:34:50.430Z,7.00
2018-04-28T08:37:16.848Z,10.33
2018-04-28T08:39:43.894Z,6.40
2018-04-28T08:42:10.918Z,8.07
2018-04-28T08:44:37.226Z,6.03
2018-04-28T08:47:03.428Z,7.80
2018-04-28T08:49:30.551Z,7.80
2018-04-28T08:51:58.060Z,7.33
2018-04-28T08:54:25.109Z,6.87
2018-04-28T08:56:52.334Z,10.50
2018-04-28T08:59:19.073Z,8.57
2018-04-28T09:01:45.395Z,7.30
2018-04-28T09:04:12.288Z,6.73
2018-04-28T09:06:40.356Z,5.07
2018-04-28T09:09:06.580Z,6.33
2018-04-28T09:11:32.831Z,5.07
2018-04-28T09:13:59.097Z,5.03
2018-04-28T09:16:32.473Z,4.80
2018-04-28T09:18:58.715Z,4.10
2018-04-28T09:21:26.335Z,3.90
2018-04-28T09:23:52.530Z,5.03
2018-04-28T09:26:18.861Z,3.13
2018-04-28T09:28:45.019Z,3.60
2018-04-28T09:31:12.151Z,3.13
2018-04-28T09:33:39.177Z,3.50
2018-04-28T09:36:06.016Z,3.50
2018-04-28T09:38:32.835Z,5.50
2018-04-28T09:40:59.029Z,3.50
2018-04-28T09:43:25.243Z,3.80
2018-04-28T09:45:53.612Z,5.27
2018-04-28T09:48:19.925Z,3.30
2018-04-28T09:50:46.227Z,4.00
2018-04-28T09:53:12.422Z,3.23
2018-04-28T09:55:39.879Z,3.13
2018-04-28T09:58:06.239Z,3.40
2018-04-28T10:00:34.388Z,3.10
2018-04-28T10:03:04.861Z,3.20
2018-04-28T10:05:31.112Z,3.37
2018-04-28T10:07:57.871Z,4.57
2018-04-28T10:10:24.096Z,3.43
2018-04-28T10:12:50.500Z,3.60
2018-04-28T10:15:17.426Z,3.47
2018-04-28T10:17:44.309Z,11.03
2018-04-28T10:20:11.301Z,3.20
2018-04-28T10:22:37.543Z,4.17
2018-04-28T10:25:04.054Z,3.30
